sensor_id;sensor_type;location;lat;lon;timestamp;pressure;altitude;pressure_sealevel;temperature;humidity
73692;BME280;61996;49.910;35.562;2022-11-15T00:02:36;100216.72;;;20.38;47.36
73692;BME280;61996;49.910;35.562;2022-11-15T00:05:39;100218.41;;;20.39;47.25
73692;BME280;61996;49.910;35.562;2022-11-15T00:08:42;100226.69;;;20.36;47.20
73692;BME280;61996;49.910;35.562;2022-11-15T00:11:44;100224.00;;;20.36;47.21
73692;BME280;61996;49.910;35.562;2022-11-15T00:14:47;100220.19;;;20.29;47.41
73692;BME280;61996;49.910;35.562;2022-11-15T00:17:51;100224.69;;;20.28;47.35
73692;BME280;61996;49.910;35.562;2022-11-15T00:20:54;100212.31;;;20.27;47.44
73692;BME280;61996;49.910;35.562;2022-11-15T00:23:58;100213.59;;;20.33;47.20
73692;BME280;61996;49.910;35.562;2022-11-15T00:27:00;100214.47;;;20.43;47.12
73692;BME280;61996;49.910;35.562;2022-11-15T00:30:08;100210.31;;;20.50;46.79
73692;BME280;61996;49.910;35.562;2022-11-15T00:33:12;100215.13;;;20.56;46.65
73692;BME280;61996;49.910;35.562;2022-11-15T00:36:15;100210.91;;;20.63;46.49
73692;BME280;61996;49.910;35.562;2022-11-15T00:39:18;100204.19;;;20.69;46.42
73692;BME280;61996;49.910;35.562;2022-11-15T00:42:20;100217.16;;;20.73;46.22
73692;BME280;61996;49.910;35.562;2022-11-15T00:45:23;100211.38;;;20.78;46.02
73692;BME280;61996;49.910;35.562;2022-11-15T00:48:27;100208.59;;;20.79;46.24
73692;BME280;61996;49.910;35.562;2022-11-15T00:51:30;100202.13;;;20.82;45.84
73692;BME280;61996;49.910;35.562;2022-11-15T00:54:33;100202.97;;;20.92;45.82
73692;BME280;61996;49.910;35.562;2022-11-15T00:57:36;100205.78;;;20.91;45.97
73692;BME280;61996;49.910;35.562;2022-11-15T01:00:38;100199.44;;;20.92;45.77
73692;BME280;61996;49.910;35.562;2022-11-15T01:03:43;100199.03;;;20.96;45.62
73692;BME280;61996;49.910;35.562;2022-11-15T01:06:45;100196.22;;;20.98;45.65
73692;BME280;61996;49.910;35.562;2022-11-15T01:09:48;100198.19;;;20.96;45.74
73692;BME280;61996;49.910;35.562;2022-11-15T01:12:51;100185.81;;;20.95;45.77
73692;BME280;61996;49.910;35.562;2022-11-15T01:15:54;100182.59;;;21.01;45.59
73692;BME280;61996;49.910;35.562;2022-11-15T01:18:58;100186.94;;;21.02;45.54
73692;BME280;61996;49.910;35.562;2022-11-15T01:22:00;100179.63;;;21.04;45.56
73692;BME280;61996;49.910;35.562;2022-11-15T01:25:03;100168.09;;;21.03;45.62
73692;BME280;61996;49.910;35.562;2022-11-15T01:28:06;100188.63;;;21.03;45.76
73692;BME280;61996;49.910;35.562;2022-11-15T01:31:11;100187.94;;;21.01;45.70
73692;BME280;61996;49.910;35.562;2022-11-15T01:34:15;100186.81;;;21.03;45.44
73692;BME280;61996;49.910;35.562;2022-11-15T01:37:18;100187.22;;;20.99;45.64
73692;BME280;61996;49.910;35.562;2022-11-15T01:40:21;100189.03;;;20.98;45.74
73692;BME280;61996;49.910;35.562;2022-11-15T01:43:24;100194.94;;;20.92;45.85
73692;BME280;61996;49.910;35.562;2022-11-15T01:46:29;100193.69;;;20.87;46.06
73692;BME280;61996;49.910;35.562;2022-11-15T01:49:34;100184.94;;;20.85;45.75
73692;BME280;61996;49.910;35.562;2022-11-15T01:52:38;100188.16;;;20.78;45.93
73692;BME280;61996;49.910;35.562;2022-11-15T01:55:41;100182.13;;;20.76;46.06
73692;BME280;61996;49.910;35.562;2022-11-15T01:58:44;100181.69;;;20.71;46.14
73692;BME280;61996;49.910;35.562;2022-11-15T02:01:47;100183.94;;;20.66;46.21
73692;BME280;61996;49.910;35.562;2022-11-15T02:04:51;100186.63;;;20.76;46.21
73692;BME280;61996;49.910;35.562;2022-11-15T02:07:54;100176.78;;;20.76;46.24
73692;BME280;61996;49.910;35.562;2022-11-15T02:10:57;100176.22;;;20.83;45.83
73692;BME280;61996;49.910;35.562;2022-11-15T02:14:00;100173.84;;;20.89;45.71
73692;BME280;61996;49.910;35.562;2022-11-15T02:17:08;100178.34;;;20.89;45.64
73692;BME280;61996;49.910;35.562;2022-11-15T02:27:22;100176.81;;;20.96;45.66
73692;BME280;61996;49.910;35.562;2022-11-15T02:30:31;100173.72;;;21.00;45.41
73692;BME280;61996;49.910;35.562;2022-11-15T02:33:40;100170.59;;;21.05;45.29
73692;BME280;61996;49.910;35.562;2022-11-15T02:36:47;100173.56;;;21.02;45.21
73692;BME280;61996;49.910;35.562;2022-11-15T02:39:54;100171.34;;;21.07;45.09
73692;BME280;61996;49.910;35.562;2022-11-15T02:43:01;100175.69;;;21.08;45.09
73692;BME280;61996;49.910;35.562;2022-11-15T02:46:27;100175.81;;;21.06;45.16
73692;BME280;61996;49.910;35.562;2022-11-15T02:49:51;100172.59;;;21.13;44.96
73692;BME280;61996;49.910;35.562;2022-11-15T02:52:55;100170.91;;;21.12;45.14
73692;BME280;61996;49.910;35.562;2022-11-15T02:55:58;100167.38;;;21.11;45.39
73692;BME280;61996;49.910;35.562;2022-11-15T02:59:05;100169.91;;;21.13;45.10
73692;BME280;61996;49.910;35.562;2022-11-15T03:02:20;100167.38;;;21.11;45.26
73692;BME280;61996;49.910;35.562;2022-11-15T03:05:29;100171.88;;;21.11;45.21
73692;BME280;61996;49.910;35.562;2022-11-15T03:08:38;100170.34;;;21.08;45.27
73692;BME280;61996;49.910;35.562;2022-11-15T03:11:44;100167.94;;;21.05;45.15
73692;BME280;61996;49.910;35.562;2022-11-15T03:14:51;100166.25;;;21.04;45.17
73692;BME280;61996;49.910;35.562;2022-11-15T03:17:59;100164.81;;;21.00;45.41
73692;BME280;61996;49.910;35.562;2022-11-15T03:21:04;100170.75;;;20.94;45.62
73692;BME280;61996;49.910;35.562;2022-11-15T03:24:08;100170.19;;;20.90;45.60
73692;BME280;61996;49.910;35.562;2022-11-15T03:27:12;100161.88;;;20.84;45.70
73692;BME280;61996;49.910;35.562;2022-11-15T03:30:16;100157.91;;;20.78;45.92
73692;BME280;61996;49.910;35.562;2022-11-15T03:33:20;100154.41;;;20.77;45.91
73692;BME280;61996;49.910;35.562;2022-11-15T03:36:23;100155.69;;;20.73;45.83
73692;BME280;61996;49.910;35.562;2022-11-15T03:39:27;100154.25;;;20.69;46.09
73692;BME280;61996;49.910;35.562;2022-11-15T03:42:31;100148.22;;;20.67;46.34
73692;BME280;61996;49.910;35.562;2022-11-15T03:45:39;100146.94;;;20.62;46.45
73692;BME280;61996;49.910;35.562;2022-11-15T03:48:46;100153.53;;;20.58;46.62
73692;BME280;61996;49.910;35.562;2022-11-15T03:51:52;100156.34;;;20.56;46.58
73692;BME280;61996;49.910;35.562;2022-11-15T03:54:55;100153.81;;;20.55;46.65
73692;BME280;61996;49.910;35.562;2022-11-15T03:57:59;100146.09;;;20.51;46.53
73692;BME280;61996;49.910;35.562;2022-11-15T04:01:02;100140.84;;;20.50;46.83
73692;BME280;61996;49.910;35.562;2022-11-15T04:04:06;100141.00;;;20.48;46.83
73692;BME280;61996;49.910;35.562;2022-11-15T04:07:09;100140.44;;;20.45;46.71
73692;BME280;61996;49.910;35.562;2022-11-15T04:10:12;100132.66;;;20.42;46.68
73692;BME280;61996;49.910;35.562;2022-11-15T04:13:15;100144.59;;;20.38;46.86
73692;BME280;61996;49.910;35.562;2022-11-15T04:16:18;100142.03;;;20.36;46.83
73692;BME280;61996;49.910;35.562;2022-11-15T04:19:22;100152.19;;;20.33;46.91
73692;BME280;61996;49.910;35.562;2022-11-15T04:22:42;100151.59;;;20.29;46.89
73692;BME280;61996;49.910;35.562;2022-11-15T04:26:03;100149.34;;;20.24;46.84
73692;BME280;61996;49.910;35.562;2022-11-15T04:29:07;100144.94;;;20.23;46.86
73692;BME280;61996;49.910;35.562;2022-11-15T04:32:27;100137.22;;;20.20;46.90
73692;BME280;61996;49.910;35.562;2022-11-15T04:35:31;100153.25;;;20.20;46.73
73692;BME280;61996;49.910;35.562;2022-11-15T04:38:34;100151.81;;;20.16;46.64
73692;BME280;61996;49.910;35.562;2022-11-15T04:41:37;100148.44;;;20.14;46.83
73692;BME280;61996;49.910;35.562;2022-11-15T04:44:39;100140.84;;;20.10;46.89
73692;BME280;61996;49.910;35.562;2022-11-15T04:47:42;100148.88;;;20.10;46.80
73692;BME280;61996;49.910;35.562;2022-11-15T04:50:48;100148.97;;;20.08;46.87
73692;BME280;61996;49.910;35.562;2022-11-15T04:53:51;100151.94;;;20.05;46.92
73692;BME280;61996;49.910;35.562;2022-11-15T04:56:54;100150.34;;;20.03;46.94
73692;BME280;61996;49.910;35.562;2022-11-15T04:59:56;100152.31;;;20.01;46.98
73692;BME280;61996;49.910;35.562;2022-11-15T05:02:59;100149.78;;;19.99;46.96
73692;BME280;61996;49.910;35.562;2022-11-15T05:06:21;100149.78;;;19.99;46.94
73692;BME280;61996;49.910;35.562;2022-11-15T05:09:24;100152.59;;;19.97;46.84
73692;BME280;61996;49.910;35.562;2022-11-15T05:12:26;100156.38;;;19.95;46.98
73692;BME280;61996;49.910;35.562;2022-11-15T05:15:29;100159.03;;;19.95;46.90
73692;BME280;61996;49.910;35.562;2022-11-15T05:18:32;100147.78;;;19.91;47.35
73692;BME280;61996;49.910;35.562;2022-11-15T05:21:36;100155.53;;;19.94;47.01
73692;BME280;61996;49.910;35.562;2022-11-15T05:24:39;100159.44;;;19.90;47.00
73692;BME280;61996;49.910;35.562;2022-11-15T05:27:41;100154.38;;;19.87;47.08
73692;BME280;61996;49.910;35.562;2022-11-15T05:30:44;100154.97;;;19.91;46.96
73692;BME280;61996;49.910;35.562;2022-11-15T05:33:47;100161.53;;;19.87;46.89
73692;BME280;61996;49.910;35.562;2022-11-15T05:36:52;100158.00;;;19.86;47.02
73692;BME280;61996;49.910;35.562;2022-11-15T05:39:56;100159.84;;;19.86;46.90
73692;BME280;61996;49.910;35.562;2022-11-15T05:42:59;100156.19;;;19.87;46.82
73692;BME280;61996;49.910;35.562;2022-11-15T05:46:02;100155.47;;;19.85;46.95
73692;BME280;61996;49.910;35.562;2022-11-15T05:49:07;100150.28;;;19.83;46.95
73692;BME280;61996;49.910;35.562;2022-11-15T05:52:14;100145.34;;;19.79;47.13
73692;BME280;61996;49.910;35.562;2022-11-15T05:55:19;100148.00;;;19.79;47.04
73692;BME280;61996;49.910;35.562;2022-11-15T05:58:21;100146.19;;;19.79;46.92
73692;BME280;61996;49.910;35.562;2022-11-15T06:01:24;100149.97;;;19.77;46.95
73692;BME280;61996;49.910;35.562;2022-11-15T06:04:27;100145.84;;;19.73;46.92
73692;BME280;61996;49.910;35.562;2022-11-15T06:07:32;100141.50;;;19.71;47.04
73692;BME280;61996;49.910;35.562;2022-11-15T06:10:34;100146.84;;;19.71;46.97
73692;BME280;61996;49.910;35.562;2022-11-15T06:13:37;100157.66;;;19.70;46.98
73692;BME280;61996;49.910;35.562;2022-11-15T06:16:40;100135.59;;;19.68;47.02
73692;BME280;61996;49.910;35.562;2022-11-15T06:19:42;100136.56;;;19.67;46.98
73692;BME280;61996;49.910;35.562;2022-11-15T06:22:46;100137.41;;;19.67;46.94
73692;BME280;61996;49.910;35.562;2022-11-15T06:25:49;100135.84;;;19.65;47.09
73692;BME280;61996;49.910;35.562;2022-11-15T06:28:52;100134.88;;;19.66;46.94
73692;BME280;61996;49.910;35.562;2022-11-15T06:31:55;100137.66;;;19.64;47.17
73692;BME280;61996;49.910;35.562;2022-11-15T06:34:57;100133.03;;;19.66;46.91
73692;BME280;61996;49.910;35.562;2022-11-15T06:38:05;100131.34;;;19.65;46.89
73692;BME280;61996;49.910;35.562;2022-11-15T06:41:08;100121.81;;;19.63;46.97
73692;BME280;61996;49.910;35.562;2022-11-15T06:44:11;100138.66;;;19.63;46.93
73692;BME280;61996;49.910;35.562;2022-11-15T06:47:14;100144.00;;;19.63;46.81
73692;BME280;61996;49.910;35.562;2022-11-15T06:50:17;100136.00;;;19.63;47.08
73692;BME280;61996;49.910;35.562;2022-11-15T06:53:21;100119.53;;;19.58;46.92
73692;BME280;61996;49.910;35.562;2022-11-15T06:56:24;100121.81;;;19.63;46.90
73692;BME280;61996;49.910;35.562;2022-11-15T06:59:27;100117.56;;;19.60;46.95
73692;BME280;61996;49.910;35.562;2022-11-15T07:02:29;100103.75;;;19.55;46.89
73692;BME280;61996;49.910;35.562;2022-11-15T07:05:32;100105.34;;;19.58;46.92
73692;BME280;61996;49.910;35.562;2022-11-15T07:08:36;100097.19;;;19.59;47.00
73692;BME280;61996;49.910;35.562;2022-11-15T07:11:39;100098.19;;;19.58;46.99
73692;BME280;61996;49.910;35.562;2022-11-15T07:14:42;100093.81;;;19.57;46.92
73692;BME280;61996;49.910;35.562;2022-11-15T07:17:44;100099.88;;;19.59;46.89
73692;BME280;61996;49.910;35.562;2022-11-15T07:20:47;100110.41;;;19.61;46.97
73692;BME280;61996;49.910;35.562;2022-11-15T07:23:51;100107.88;;;19.59;46.89
73692;BME280;61996;49.910;35.562;2022-11-15T07:26:54;100108.84;;;19.58;46.92
73692;BME280;61996;49.910;35.562;2022-11-15T07:29:57;100106.19;;;19.58;46.93
73692;BME280;61996;49.910;35.562;2022-11-15T07:33:00;100102.66;;;19.58;46.99
73692;BME280;61996;49.910;35.562;2022-11-15T07:36:04;100098.19;;;19.58;46.83
73692;BME280;61996;49.910;35.562;2022-11-15T07:39:08;100092.84;;;19.58;46.86
73692;BME280;61996;49.910;35.562;2022-11-15T07:42:13;100101.56;;;19.60;46.81
73692;BME280;61996;49.910;35.562;2022-11-15T07:45:33;100090.88;;;19.60;46.81
73692;BME280;61996;49.910;35.562;2022-11-15T07:48:37;100083.59;;;19.62;46.64
73692;BME280;61996;49.910;35.562;2022-11-15T07:51:45;100075.59;;;19.62;46.70
73692;BME280;61996;49.910;35.562;2022-11-15T07:54:49;100076.31;;;19.64;46.67
73692;BME280;61996;49.910;35.562;2022-11-15T07:57:52;100080.66;;;19.65;46.69
73692;BME280;61996;49.910;35.562;2022-11-15T08:00:55;100065.50;;;19.66;46.45
73692;BME280;61996;49.910;35.562;2022-11-15T08:03:57;100065.34;;;19.67;46.46
73692;BME280;61996;49.910;35.562;2022-11-15T08:07:00;100067.06;;;19.68;46.52
73692;BME280;61996;49.910;35.562;2022-11-15T08:10:05;100064.41;;;19.68;46.60
73692;BME280;61996;49.910;35.562;2022-11-15T08:13:10;100064.50;;;19.67;46.43
73692;BME280;61996;49.910;35.562;2022-11-15T08:16:12;100038.94;;;19.64;46.43
73692;BME280;61996;49.910;35.562;2022-11-15T08:19:15;100042.31;;;19.66;46.41
73692;BME280;61996;49.910;35.562;2022-11-15T08:22:19;100039.66;;;19.66;46.33
73692;BME280;61996;49.910;35.562;2022-11-15T08:25:23;100038.09;;;19.64;46.45
73692;BME280;61996;49.910;35.562;2022-11-15T08:28:27;100030.81;;;19.66;46.28
73692;BME280;61996;49.910;35.562;2022-11-15T08:31:30;100027.28;;;19.65;46.42
73692;BME280;61996;49.910;35.562;2022-11-15T08:34:33;100028.00;;;19.67;46.50
73692;BME280;61996;49.910;35.562;2022-11-15T08:37:35;100025.47;;;19.66;46.38
73692;BME280;61996;49.910;35.562;2022-11-15T08:40:40;100038.94;;;19.64;46.52
73692;BME280;61996;49.910;35.562;2022-11-15T08:43:42;100035.31;;;19.65;46.48
73692;BME280;61996;49.910;35.562;2022-11-15T08:46:45;100027.69;;;19.61;46.51
73692;BME280;61996;49.910;35.562;2022-11-15T08:49:48;100023.22;;;19.61;46.54
73692;BME280;61996;49.910;35.562;2022-11-15T08:52:50;100019.56;;;19.62;46.41
73692;BME280;61996;49.910;35.562;2022-11-15T08:55:55;100016.91;;;19.62;46.56
73692;BME280;61996;49.910;35.562;2022-11-15T09:02:12;100000.16;;;19.60;46.40
73692;BME280;61996;49.910;35.562;2022-11-15T09:05:15;99998.72;;;19.56;46.70
73692;BME280;61996;49.910;35.562;2022-11-15T09:08:20;99989.50;;;19.60;46.50
73692;BME280;61996;49.910;35.562;2022-11-15T09:11:45;99979.34;;;19.54;46.53
73692;BME280;61996;49.910;35.562;2022-11-15T09:14:48;99969.28;;;19.58;46.64
73692;BME280;61996;49.910;35.562;2022-11-15T09:17:50;99970.97;;;19.59;46.37
73692;BME280;61996;49.910;35.562;2022-11-15T09:20:54;99975.47;;;19.58;46.42
73692;BME280;61996;49.910;35.562;2022-11-15T09:23:57;99985.28;;;19.58;46.39
73692;BME280;61996;49.910;35.562;2022-11-15T09:27:02;99995.38;;;19.54;46.55
73692;BME280;61996;49.910;35.562;2022-11-15T09:30:05;99991.56;;;19.57;46.54
73692;BME280;61996;49.910;35.562;2022-11-15T09:33:08;99968.44;;;19.57;46.45
73692;BME280;61996;49.910;35.562;2022-11-15T09:36:11;99947.34;;;19.54;46.51
73692;BME280;61996;49.910;35.562;2022-11-15T09:39:14;99943.69;;;19.55;46.54
73692;BME280;61996;49.910;35.562;2022-11-15T09:42:22;99931.44;;;19.53;46.41
73692;BME280;61996;49.910;35.562;2022-11-15T09:45:28;99923.09;;;19.57;46.47
73692;BME280;61996;49.910;35.562;2022-11-15T09:48:36;99914.47;;;19.54;46.44
73692;BME280;61996;49.910;35.562;2022-11-15T09:51:43;99908.03;;;19.56;46.39
73692;BME280;61996;49.910;35.562;2022-11-15T09:54:49;99907.44;;;19.53;46.52
73692;BME280;61996;49.910;35.562;2022-11-15T09:57:58;99909.28;;;19.52;46.28
73692;BME280;61996;49.910;35.562;2022-11-15T10:01:04;99906.88;;;19.49;46.54
73692;BME280;61996;49.910;35.562;2022-11-15T10:04:08;99913.22;;;19.48;46.59
73692;BME280;61996;49.910;35.562;2022-11-15T10:07:13;99915.88;;;19.48;46.64
73692;BME280;61996;49.910;35.562;2022-11-15T10:10:20;99914.06;;;19.49;46.58
73692;BME280;61996;49.910;35.562;2022-11-15T10:13:28;99924.88;;;19.47;46.48
73692;BME280;61996;49.910;35.562;2022-11-15T10:16:47;99911.63;;;19.45;46.61
73692;BME280;61996;49.910;35.562;2022-11-15T10:19:56;99905.22;;;19.48;46.50
73692;BME280;61996;49.910;35.562;2022-11-15T10:23:06;99896.47;;;19.46;46.50
73692;BME280;61996;49.910;35.562;2022-11-15T10:26:13;99892.13;;;19.45;46.63
73692;BME280;61996;49.910;35.562;2022-11-15T10:29:19;99884.41;;;19.52;46.35
73692;BME280;61996;49.910;35.562;2022-11-15T10:32:27;99885.34;;;19.62;46.22
73692;BME280;61996;49.910;35.562;2022-11-15T10:35:30;99873.53;;;19.74;45.77
73692;BME280;61996;49.910;35.562;2022-11-15T10:38:33;99873.81;;;19.81;45.57
73692;BME280;61996;49.910;35.562;2022-11-15T10:41:36;99868.38;;;19.92;45.30
73692;BME280;61996;49.910;35.562;2022-11-15T10:44:42;99857.56;;;20.03;45.07
73692;BME280;61996;49.910;35.562;2022-11-15T10:47:45;99856.13;;;20.09;44.90
73692;BME280;61996;49.910;35.562;2022-11-15T10:50:48;99856.13;;;19.99;44.74
73692;BME280;61996;49.910;35.562;2022-11-15T10:53:52;99864.72;;;20.12;42.97
73692;BME280;61996;49.910;35.562;2022-11-15T10:56:55;99851.06;;;19.86;42.45
73692;BME280;61996;49.910;35.562;2022-11-15T11:00:01;99852.91;;;19.95;42.30
73692;BME280;61996;49.910;35.562;2022-11-15T11:03:27;99843.50;;;19.72;42.00
73692;BME280;61996;49.910;35.562;2022-11-15T11:06:31;99838.00;;;19.74;41.60
73692;BME280;61996;49.910;35.562;2022-11-15T11:09:49;99832.66;;;19.64;41.84
73692;BME280;61996;49.910;35.562;2022-11-15T11:13:12;99841.50;;;19.64;42.00
73692;BME280;61996;49.910;35.562;2022-11-15T11:16:21;99837.94;;;19.44;41.77
73692;BME280;61996;49.910;35.562;2022-11-15T11:19:38;99847.06;;;19.42;41.85
73692;BME280;61996;49.910;35.562;2022-11-15T11:22:46;99841.69;;;19.32;42.02
73692;BME280;61996;49.910;35.562;2022-11-15T11:25:55;99857.28;;;19.37;42.22
73692;BME280;61996;49.910;35.562;2022-11-15T11:29:08;99852.94;;;19.36;42.23
73692;BME280;61996;49.910;35.562;2022-11-15T11:32:26;99854.91;;;19.34;42.41
73692;BME280;61996;49.910;35.562;2022-11-15T11:35:33;99847.31;;;19.29;42.36
73692;BME280;61996;49.910;35.562;2022-11-15T11:38:44;99828.78;;;19.28;43.50
73692;BME280;61996;49.910;35.562;2022-11-15T11:41:56;99833.84;;;19.21;42.56
73692;BME280;61996;49.910;35.562;2022-11-15T11:45:05;99811.91;;;19.17;42.89
73692;BME280;61996;49.910;35.562;2022-11-15T11:48:14;99815.56;;;19.16;42.79
73692;BME280;61996;49.910;35.562;2022-11-15T11:51:20;99804.47;;;19.11;43.09
73692;BME280;61996;49.910;35.562;2022-11-15T11:54:25;99793.78;;;19.11;42.83
73692;BME280;61996;49.910;35.562;2022-11-15T11:57:37;99791.13;;;19.02;43.37
73692;BME280;61996;49.910;35.562;2022-11-15T12:00:47;99794.75;;;19.01;42.81
73692;BME280;61996;49.910;35.562;2022-11-15T12:03:55;99791.66;;;19.05;42.66
73692;BME280;61996;49.910;35.562;2022-11-15T12:06:59;99780.22;;;19.24;43.11
73692;BME280;61996;49.910;35.562;2022-11-15T12:10:05;99758.63;;;19.27;44.39
73692;BME280;61996;49.910;35.562;2022-11-15T12:13:16;99757.78;;;19.27;43.36
73692;BME280;61996;49.910;35.562;2022-11-15T12:16:20;99760.44;;;19.46;42.84
73692;BME280;61996;49.910;35.562;2022-11-15T12:19:25;99747.66;;;19.40;43.92
73692;BME280;61996;49.910;35.562;2022-11-15T12:22:33;99749.63;;;19.38;43.92
73692;BME280;61996;49.910;35.562;2022-11-15T12:25:41;99738.13;;;19.28;44.02
73692;BME280;61996;49.910;35.562;2022-11-15T12:28:47;99736.44;;;19.17;43.60
73692;BME280;61996;49.910;35.562;2022-11-15T12:32:13;99740.06;;;19.26;44.01
73692;BME280;61996;49.910;35.562;2022-11-15T12:35:29;99735.03;;;19.23;44.66
73692;BME280;61996;49.910;35.562;2022-11-15T12:38:53;99723.25;;;19.15;43.75
73692;BME280;61996;49.910;35.562;2022-11-15T12:45:24;99710.34;;;19.21;44.20
73692;BME280;61996;49.910;35.562;2022-11-15T12:52:06;99712.59;;;19.15;43.84
73692;BME280;61996;49.910;35.562;2022-11-15T12:55:29;99714.13;;;19.08;43.51
73692;BME280;61996;49.910;35.562;2022-11-15T12:58:39;99717.75;;;19.07;43.44
73692;BME280;61996;49.910;35.562;2022-11-15T13:01:57;99688.16;;;19.10;44.08
73692;BME280;61996;49.910;35.562;2022-11-15T13:05:27;99689.97;;;19.10;43.62
73692;BME280;61996;49.910;35.562;2022-11-15T13:08:45;99678.63;;;19.08;43.44
73692;BME280;61996;49.910;35.562;2022-11-15T13:11:50;99679.63;;;19.07;44.12
73692;BME280;61996;49.910;35.562;2022-11-15T13:14:53;99676.25;;;19.14;44.10
73692;BME280;61996;49.910;35.562;2022-11-15T13:17:56;99675.56;;;19.12;44.02
73692;BME280;61996;49.910;35.562;2022-11-15T13:20:59;99667.56;;;19.12;44.46
73692;BME280;61996;49.910;35.562;2022-11-15T13:24:05;99647.75;;;19.05;43.72
73692;BME280;61996;49.910;35.562;2022-11-15T13:27:13;99651.69;;;19.11;43.50
73692;BME280;61996;49.910;35.562;2022-11-15T13:30:19;99649.16;;;19.09;44.13
73692;BME280;61996;49.910;35.562;2022-11-15T13:33:23;99643.81;;;19.09;43.93
73692;BME280;61996;49.910;35.562;2022-11-15T13:36:32;99642.13;;;19.18;43.71
73692;BME280;61996;49.910;35.562;2022-11-15T13:39:37;99627.00;;;19.09;43.67
73692;BME280;61996;49.910;35.562;2022-11-15T13:42:40;99612.53;;;19.11;43.85
73692;BME280;61996;49.910;35.562;2022-11-15T13:45:50;99615.75;;;19.25;43.69
73692;BME280;61996;49.910;35.562;2022-11-15T13:49:08;99610.16;;;19.08;43.74
73692;BME280;61996;49.910;35.562;2022-11-15T13:52:13;99610.44;;;19.15;43.76
73692;BME280;61996;49.910;35.562;2022-11-15T13:55:19;99611.41;;;19.33;43.54
73692;BME280;61996;49.910;35.562;2022-11-15T13:58:23;99604.78;;;19.37;42.87
73692;BME280;61996;49.910;35.562;2022-11-15T14:01:27;99597.22;;;19.42;43.26
73692;BME280;61996;49.910;35.562;2022-11-15T14:04:38;99595.66;;;19.50;43.27
73692;BME280;61996;49.910;35.562;2022-11-15T14:07:44;99605.75;;;19.56;43.63
73692;BME280;61996;49.910;35.562;2022-11-15T14:11:09;99603.38;;;19.62;43.06
73692;BME280;61996;49.910;35.562;2022-11-15T14:14:15;99603.78;;;19.67;43.10
73692;BME280;61996;49.910;35.562;2022-11-15T14:17:19;99596.88;;;19.75;42.86
73692;BME280;61996;49.910;35.562;2022-11-15T14:20:29;99581.25;;;19.80;42.84
73692;BME280;61996;49.910;35.562;2022-11-15T14:23:34;99574.81;;;19.82;42.35
73692;BME280;61996;49.910;35.562;2022-11-15T14:26:38;99568.59;;;19.82;42.83
73692;BME280;61996;49.910;35.562;2022-11-15T14:29:40;99567.06;;;19.89;42.43
73692;BME280;61996;49.910;35.562;2022-11-15T14:32:44;99558.44;;;19.95;42.40
73692;BME280;61996;49.910;35.562;2022-11-15T14:35:47;99561.13;;;19.95;42.60
73692;BME280;61996;49.910;35.562;2022-11-15T14:38:50;99570.50;;;19.99;42.45
73692;BME280;61996;49.910;35.562;2022-11-15T14:41:54;99566.03;;;19.99;41.92
73692;BME280;61996;49.910;35.562;2022-11-15T14:44:57;99544.22;;;20.04;41.75
73692;BME280;61996;49.910;35.562;2022-11-15T14:47:59;99536.75;;;20.08;41.58
73692;BME280;61996;49.910;35.562;2022-11-15T14:51:02;99542.41;;;20.05;41.56
73692;BME280;61996;49.910;35.562;2022-11-15T14:54:07;99542.84;;;20.00;41.32
73692;BME280;61996;49.910;35.562;2022-11-15T14:57:12;99536.00;;;19.88;41.63
73692;BME280;61996;49.910;35.562;2022-11-15T15:00:15;99513.72;;;19.79;42.23
73692;BME280;61996;49.910;35.562;2022-11-15T15:03:18;99513.88;;;19.78;42.75
73692;BME280;61996;49.910;35.562;2022-11-15T15:06:21;99511.47;;;19.75;42.22
73692;BME280;61996;49.910;35.562;2022-11-15T15:09:24;99507.97;;;19.74;42.15
73692;BME280;61996;49.910;35.562;2022-11-15T15:12:28;99498.75;;;19.68;42.22
73692;BME280;61996;49.910;35.562;2022-11-15T15:15:32;99496.53;;;19.64;42.61
73692;BME280;61996;49.910;35.562;2022-11-15T15:18:35;99486.56;;;19.56;42.59
73692;BME280;61996;49.910;35.562;2022-11-15T15:21:38;99489.66;;;19.52;42.72
73692;BME280;61996;49.910;35.562;2022-11-15T15:24:40;99485.09;;;19.71;43.48
73692;BME280;61996;49.910;35.562;2022-11-15T15:27:45;99484.59;;;19.68;43.71
73692;BME280;61996;49.910;35.562;2022-11-15T15:30:48;99468.56;;;19.68;43.84
73692;BME280;61996;49.910;35.562;2022-11-15T15:33:51;99463.38;;;19.66;44.23
73692;BME280;61996;49.910;35.562;2022-11-15T15:37:06;99470.38;;;19.67;44.27
73692;BME280;61996;49.910;35.562;2022-11-15T15:40:10;99456.34;;;19.65;44.30
73692;BME280;61996;49.910;35.562;2022-11-15T15:43:16;99456.34;;;19.65;44.48
73692;BME280;61996;49.910;35.562;2022-11-15T15:46:19;99447.34;;;19.66;44.36
73692;BME280;61996;49.910;35.562;2022-11-15T15:49:22;99440.91;;;19.69;44.52
73692;BME280;61996;49.910;35.562;2022-11-15T15:52:24;99436.00;;;19.64;44.55
73692;BME280;61996;49.910;35.562;2022-11-15T15:55:27;99429.00;;;19.63;44.76
73692;BME280;61996;49.910;35.562;2022-11-15T15:58:32;99422.66;;;19.64;44.83
73692;BME280;61996;49.910;35.562;2022-11-15T16:01:35;99415.81;;;19.62;44.77
73692;BME280;61996;49.910;35.562;2022-11-15T16:04:38;99417.75;;;19.60;44.81
73692;BME280;61996;49.910;35.562;2022-11-15T16:07:41;99417.75;;;19.60;44.73
73692;BME280;61996;49.910;35.562;2022-11-15T16:10:47;99419.16;;;19.64;44.55
73692;BME280;61996;49.910;35.562;2022-11-15T16:13:51;99413.25;;;19.60;45.03
73692;BME280;61996;49.910;35.562;2022-11-15T16:16:54;99401.91;;;19.58;44.98
73692;BME280;61996;49.910;35.562;2022-11-15T16:19:57;99400.53;;;19.54;45.14
73692;BME280;61996;49.910;35.562;2022-11-15T16:23:00;99397.69;;;19.56;45.09